Time;durP1;ratioP1;P1;durP2;ratioP2;P2;SDS_P1;SDS_P2;PMS_P1;PMS_P2;Temp;Humidity;BMP_temperature;BMP_pressure;BME280_temperature;BME280_humidity;BME280_pressure;Samples;Min_cycle;Max_cycle;Signal;HPM_P1;HPM_P2
2023/02/05 00:01:50;;;;;;;44.77;14.90;;;7.60;99.90;;;;;;5093279;28;20492;-67
2023/02/05 00:04:16;;;;;;;28.83;14.93;;;7.60;99.90;;;;;;5092343;28;20173;-67
2023/02/05 00:06:41;;;;;;;34.20;15.40;;;7.70;99.90;;;;;;5093741;28;20281;-67
2023/02/05 00:09:07;;;;;;;25.97;15.27;;;7.70;99.90;;;;;;5095778;28;20677;-67
2023/02/05 00:11:32;;;;;;;36.70;15.13;;;7.70;99.90;;;;;;5097711;28;20212;-67
2023/02/05 00:13:58;;;;;;;38.00;15.10;;;7.70;99.90;;;;;;5099206;28;20225;-67
2023/02/05 00:16:24;;;;;;;31.10;17.70;;;7.60;99.90;;;;;;5100896;28;20221;-67
2023/02/05 00:18:50;;;;;;;34.93;15.53;;;7.60;99.90;;;;;;5102897;28;20198;-67
2023/02/05 00:21:20;;;;;;;35.83;14.93;;;7.60;99.90;;;;;;5104529;28;20443;-67
2023/02/05 00:23:46;;;;;;;35.67;14.70;;;7.60;99.90;;;;;;5105297;28;20438;-67
2023/02/05 00:26:13;;;;;;;30.30;14.00;;;7.60;99.90;;;;;;5108424;28;20477;-66
2023/02/05 00:28:39;;;;;;;42.53;15.40;;;7.60;99.90;;;;;;5090092;28;20470;-66
2023/02/05 00:31:16;;;;;;;34.90;14.77;;;7.60;99.90;;;;;;5092124;28;20419;-67
2023/02/05 00:33:42;;;;;;;44.43;17.13;;;7.60;99.90;;;;;;5093557;28;20526;-65
2023/02/05 00:36:10;;;;;;;31.50;15.97;;;7.60;99.90;;;;;;5095148;28;20782;-65
2023/02/05 00:38:35;;;;;;;34.97;16.63;;;7.60;99.90;;;;;;5096717;28;21434;-65
2023/02/05 00:41:02;;;;;;;39.57;17.00;;;7.60;99.90;;;;;;5098841;28;20426;-65
2023/02/05 00:43:27;;;;;;;33.50;16.70;;;7.60;99.90;;;;;;5103755;28;20208;-65
2023/02/05 00:45:53;;;;;;;26.53;15.07;;;7.60;99.90;;;;;;5100946;28;20784;-67
2023/02/05 00:48:19;;;;;;;36.87;14.83;;;7.70;99.90;;;;;;5099118;28;20184;-66
2023/02/05 00:50:49;;;;;;;29.97;14.20;;;7.70;99.90;;;;;;5097303;28;20189;-67
2023/02/05 00:53:15;;;;;;;33.00;14.53;;;7.70;99.90;;;;;;5102788;28;20311;-67
2023/02/05 00:55:41;;;;;;;29.33;13.63;;;7.70;99.90;;;;;;5106017;28;20507;-66
2023/02/05 00:58:06;;;;;;;38.17;15.27;;;7.70;99.90;;;;;;5091848;28;20178;-67
2023/02/05 01:00:32;;;;;;;30.80;13.87;;;7.70;99.90;;;;;;5090548;28;20186;-67
2023/02/05 01:02:59;;;;;;;34.27;14.13;;;7.70;99.90;;;;;;5095152;28;20220;-66
2023/02/05 01:05:24;;;;;;;35.20;16.37;;;7.70;99.90;;;;;;5100097;28;20557;-66
2023/02/05 01:07:50;;;;;;;31.70;13.40;;;7.70;99.90;;;;;;5101724;28;20993;-67
2023/02/05 01:10:15;;;;;;;31.50;15.70;;;7.80;99.90;;;;;;5103501;28;20209;-67
2023/02/05 01:12:41;;;;;;;31.30;14.50;;;7.80;99.90;;;;;;5105280;28;20237;-67
2023/02/05 01:15:07;;;;;;;31.20;14.87;;;7.80;99.90;;;;;;5107127;28;20267;-67
2023/02/05 01:17:33;;;;;;;30.60;15.07;;;7.70;99.90;;;;;;5108654;28;20174;-67
2023/02/05 01:19:59;;;;;;;33.87;14.40;;;7.70;99.90;;;;;;5110515;28;20438;-66
2023/02/05 01:22:24;;;;;;;24.03;14.07;;;7.80;99.90;;;;;;5112428;28;20419;-66
2023/02/05 01:24:50;;;;;;;36.27;16.13;;;7.80;99.90;;;;;;5114329;28;20177;-66
2023/02/05 01:27:16;;;;;;;32.23;15.60;;;7.80;99.90;;;;;;5109645;28;20178;-67
2023/02/05 01:29:41;;;;;;;26.57;13.50;;;7.80;99.90;;;;;;5097358;28;20667;-66
2023/02/05 01:32:07;;;;;;;32.10;15.27;;;7.80;99.90;;;;;;5098962;28;20272;-67
2023/02/05 01:34:33;;;;;;;28.97;15.63;;;7.90;99.90;;;;;;5100664;28;20227;-66
2023/02/05 01:36:58;;;;;;;32.63;14.60;;;7.90;99.90;;;;;;5102570;28;20644;-66
2023/02/05 01:39:24;;;;;;;33.30;13.23;;;7.90;99.90;;;;;;5104194;28;20264;-66
2023/02/05 01:41:49;;;;;;;35.23;13.20;;;7.90;99.90;;;;;;5106009;28;20185;-66
2023/02/05 01:44:18;;;;;;;48.77;17.73;;;7.90;99.90;;;;;;5107655;28;20177;-65
2023/02/05 01:46:45;;;;;;;32.43;14.43;;;7.90;99.90;;;;;;5096497;28;20208;-66
2023/02/05 01:49:24;;;;;;;34.53;16.17;;;8.00;99.90;;;;;;5096740;28;20436;-66
2023/02/05 01:51:52;;;;;;;32.73;15.57;;;8.00;99.90;;;;;;5094961;28;20467;-66
2023/02/05 01:54:21;;;;;;;28.30;15.57;;;8.00;99.90;;;;;;5094618;28;20514;-65
2023/02/05 01:56:55;;;;;;;49.97;13.80;;;8.00;99.90;;;;;;5093795;28;20514;-65
2023/02/05 01:59:24;;;;;;;28.10;13.60;;;8.00;99.90;;;;;;5098706;28;20510;-65
2023/02/05 02:01:50;;;;;;;25.27;13.60;;;8.00;99.90;;;;;;5108195;28;20470;-65
2023/02/05 02:04:29;;;;;;;27.57;14.43;;;8.00;99.90;;;;;;5104230;28;20430;-65
2023/02/05 02:06:54;;;;;;;36.17;14.07;;;8.10;99.90;;;;;;5102054;28;20435;-66
2023/02/05 02:09:21;;;;;;;31.27;16.40;;;8.10;99.90;;;;;;5101997;28;21079;-65
2023/02/05 02:11:47;;;;;;;40.50;15.70;;;8.10;99.90;;;;;;5100434;28;20270;-66
2023/02/05 02:14:13;;;;;;;34.43;16.77;;;8.00;99.90;;;;;;5098303;28;21001;-65
2023/02/05 02:16:40;;;;;;;28.27;15.17;;;8.00;99.90;;;;;;5096354;28;20447;-65
2023/02/05 02:19:16;;;;;;;28.93;16.63;;;8.00;99.90;;;;;;5094461;28;20987;-65
2023/02/05 02:21:58;;;;;;;39.63;17.30;;;8.00;99.90;;;;;;5094260;28;20435;-65
2023/02/05 02:24:31;;;;;;;55.30;19.73;;;8.00;99.90;;;;;;5096596;28;20826;-65
2023/02/05 02:27:10;;;;;;;37.13;16.90;;;8.10;99.90;;;;;;5098241;28;20791;-65
2023/02/05 02:29:50;;;;;;;32.83;16.47;;;8.10;99.90;;;;;;5106750;28;20780;-66
2023/02/05 02:32:40;;;;;;;34.03;16.47;;;8.10;99.90;;;;;;5101116;28;20426;-66
2023/02/05 02:35:08;;;;;;;31.00;14.97;;;8.20;99.90;;;;;;5103974;28;20486;-66
2023/02/05 02:37:45;;;;;;;31.60;15.73;;;8.20;99.90;;;;;;5105739;28;20410;-65
2023/02/05 02:40:40;;;;;;;30.47;14.10;;;8.20;99.90;;;;;;5106903;28;20437;-66
2023/02/05 02:43:18;;;;;;;27.93;13.57;;;8.30;99.90;;;;;;5099412;28;20427;-65
2023/02/05 02:45:53;;;;;;;22.63;12.13;;;8.30;99.90;;;;;;5091394;28;20443;-65
2023/02/05 02:48:23;;;;;;;31.50;12.47;;;8.30;99.90;;;;;;5107005;28;20458;-65
2023/02/05 02:50:52;;;;;;;31.10;12.43;;;8.30;99.90;;;;;;5111430;28;20431;-65
2023/02/05 02:53:24;;;;;;;37.80;14.93;;;8.40;99.90;;;;;;5108687;27;20510;-64
2023/02/05 02:55:52;;;;;;;30.63;14.10;;;8.40;99.90;;;;;;5095954;28;20442;-65
2023/02/05 02:58:24;;;;;;;42.20;13.50;;;8.30;99.90;;;;;;5100562;28;20423;-65
2023/02/05 03:00:51;;;;;;;41.50;15.63;;;8.40;99.90;;;;;;5102170;28;20427;-65
2023/02/05 03:03:19;;;;;;;37.57;14.37;;;8.40;99.90;;;;;;5104139;28;20894;-65
2023/02/05 03:05:48;;;;;;;32.50;13.90;;;8.40;99.90;;;;;;5106205;28;20426;-65
2023/02/05 03:08:40;;;;;;;33.17;14.60;;;8.40;99.90;;;;;;5107576;28;20437;-65
2023/02/05 03:11:12;;;;;;;28.40;12.50;;;8.40;99.90;;;;;;5109982;27;20414;-65
2023/02/05 03:13:38;;;;;;;33.23;15.67;;;8.50;99.90;;;;;;5097506;28;20471;-65
2023/02/05 03:16:04;;;;;;;28.10;13.90;;;8.50;99.90;;;;;;5093046;28;20838;-65
2023/02/05 03:18:30;;;;;;;29.30;13.20;;;8.50;99.90;;;;;;5094664;28;20193;-65
2023/02/05 03:21:24;;;;;;;31.17;13.13;;;8.50;99.90;;;;;;5097054;28;20415;-65
2023/02/05 03:23:50;;;;;;;29.97;15.00;;;8.40;99.90;;;;;;5101496;28;20476;-65
2023/02/05 03:26:23;;;;;;;26.73;13.00;;;8.40;99.90;;;;;;5104194;28;20427;-65
2023/02/05 03:28:49;;;;;;;43.97;15.30;;;8.40;99.90;;;;;;5100862;28;20430;-65
2023/02/05 03:31:21;;;;;;;33.13;15.63;;;8.40;99.90;;;;;;5105027;28;20431;-65
2023/02/05 03:34:21;;;;;;;33.70;13.30;;;8.40;99.90;;;;;;5096960;28;20520;-65
2023/02/05 03:37:08;;;;;;;32.97;16.03;;;8.40;99.90;;;;;;5097333;28;20446;-65
2023/02/05 03:39:55;;;;;;;39.10;14.53;;;8.30;99.90;;;;;;5092809;28;20455;-66
2023/02/05 05:32:25;;;;;;;44.80;18.87;;;8.50;99.90;;;;;;5140526;23;21021;-72
2023/02/05 05:34:50;;;;;;;40.17;18.37;;;8.40;99.90;;;;;;4993830;28;20448;-72
2023/02/05 05:37:16;;;;;;;37.43;18.07;;;8.50;99.90;;;;;;4991908;28;20172;-72
2023/02/05 05:45:10;;;;;;;43.00;19.10;;;8.50;99.90;;;;;;4985915;28;20451;-70
2023/02/05 05:47:35;;;;;;;43.30;19.00;;;8.50;99.90;;;;;;4983958;28;20436;-71
2023/02/05 05:50:01;;;;;;;39.10;20.03;;;8.50;99.90;;;;;;4982211;28;20205;-71
2023/02/05 05:52:27;;;;;;;36.80;19.23;;;8.60;99.90;;;;;;4980928;28;20177;-71
2023/02/05 05:54:52;;;;;;;37.27;19.70;;;8.60;99.90;;;;;;4979004;28;20767;-70
2023/02/05 05:57:18;;;;;;;40.97;17.40;;;8.50;99.90;;;;;;4978607;28;20177;-70
2023/02/05 05:59:43;;;;;;;45.50;20.30;;;8.50;99.90;;;;;;4976454;28;20202;-71
2023/02/05 06:02:09;;;;;;;40.90;19.80;;;8.50;99.90;;;;;;4977681;28;20185;-71
2023/02/05 06:04:34;;;;;;;42.67;18.87;;;8.50;99.90;;;;;;4979772;28;20200;-71
2023/02/05 06:07:01;;;;;;;32.00;18.00;;;8.50;99.90;;;;;;4981308;28;20189;-70
2023/02/05 06:09:26;;;;;;;34.43;18.37;;;8.50;99.90;;;;;;4992066;28;20180;-71
2023/02/05 06:11:52;;;;;;;41.93;22.03;;;8.50;99.90;;;;;;4984416;28;20475;-71
2023/02/05 06:14:17;;;;;;;34.20;19.20;;;8.50;99.90;;;;;;4984344;28;20253;-71
2023/02/05 06:16:43;;;;;;;43.30;20.80;;;8.50;99.90;;;;;;4982387;28;20562;-71
2023/02/05 06:19:08;;;;;;;47.10;22.53;;;8.60;99.90;;;;;;4980575;28;20192;-71
2023/02/05 06:21:34;;;;;;;43.13;21.77;;;8.60;99.90;;;;;;4979021;28;20181;-72
2023/02/05 06:23:59;;;;;;;41.67;20.50;;;8.60;99.90;;;;;;4977431;28;20193;-73
2023/02/05 06:26:25;;;;;;;35.20;22.60;;;8.60;99.90;;;;;;4990451;28;20189;-73
2023/02/05 06:28:51;;;;;;;43.77;23.90;;;8.60;99.90;;;;;;4993169;28;20185;-73
2023/02/05 06:31:16;;;;;;;44.77;24.50;;;8.60;99.90;;;;;;4990873;28;20236;-73
2023/02/05 06:33:42;;;;;;;52.43;25.60;;;8.70;99.90;;;;;;4989391;28;20216;-71
2023/02/05 06:36:08;;;;;;;45.90;25.00;;;8.70;99.90;;;;;;4987064;28;20555;-73
2023/02/05 06:38:34;;;;;;;46.93;25.20;;;8.70;99.90;;;;;;4985213;28;20435;-72
2023/02/05 06:40:59;;;;;;;56.70;28.00;;;8.80;99.90;;;;;;4984101;28;20802;-73
2023/02/05 06:43:25;;;;;;;53.70;27.30;;;8.70;99.90;;;;;;4981561;28;20189;-72
2023/02/05 06:45:51;;;;;;;51.27;24.33;;;8.70;99.90;;;;;;4988066;28;20185;-71
2023/02/05 06:48:17;;;;;;;49.07;25.40;;;8.70;99.90;;;;;;4989552;28;20656;-71
2023/02/05 06:50:42;;;;;;;47.53;26.87;;;8.70;99.90;;;;;;4991499;28;20651;-68
2023/02/05 06:53:08;;;;;;;51.93;28.80;;;8.70;99.90;;;;;;4992920;28;20484;-71
2023/02/05 06:55:33;;;;;;;55.07;25.83;;;8.80;99.90;;;;;;4990889;28;20688;-70
2023/02/05 06:57:59;;;;;;;53.00;28.20;;;8.80;99.90;;;;;;4978079;28;20186;-71
2023/02/05 07:00:25;;;;;;;48.30;27.03;;;8.80;99.90;;;;;;4980059;28;20550;-72
2023/02/05 07:02:50;;;;;;;53.33;28.83;;;8.80;99.90;;;;;;4980093;28;20182;-71
2023/02/05 07:05:16;;;;;;;57.50;27.00;;;8.80;99.90;;;;;;4981481;28;20189;-72
2023/02/05 07:07:41;;;;;;;51.63;28.73;;;8.80;99.90;;;;;;4982681;28;20200;-72
2023/02/05 07:10:07;;;;;;;59.60;30.90;;;8.80;99.90;;;;;;4979216;28;20193;-72
2023/02/05 07:12:33;;;;;;;57.30;31.50;;;8.80;99.90;;;;;;4979415;28;20304;-74
2023/02/05 07:14:58;;;;;;;48.73;26.53;;;8.80;99.90;;;;;;4978129;28;20854;-73
2023/02/05 07:17:24;;;;;;;59.97;34.03;;;8.80;99.90;;;;;;4975753;28;20177;-72
2023/02/05 07:19:50;;;;;;;63.93;32.77;;;8.80;99.90;;;;;;4985440;28;20223;-72
2023/02/05 07:22:15;;;;;;;61.40;33.03;;;8.80;99.90;;;;;;4992047;28;20220;-71
2023/02/05 07:24:41;;;;;;;60.83;30.63;;;8.80;99.90;;;;;;4991063;28;20619;-70
2023/02/05 07:27:06;;;;;;;59.70;32.27;;;8.90;99.90;;;;;;4988480;28;20185;-71
2023/02/05 07:29:32;;;;;;;55.23;29.40;;;8.90;99.90;;;;;;4986752;28;20182;-71
2023/02/05 07:31:58;;;;;;;60.20;32.47;;;8.80;99.90;;;;;;4984983;28;20235;-70
2023/02/05 07:34:23;;;;;;;65.50;33.50;;;8.90;99.90;;;;;;4982504;28;20579;-69
2023/02/05 07:36:51;;;;;;;64.03;32.87;;;8.90;99.90;;;;;;4984290;28;20235;-71
2023/02/05 07:39:16;;;;;;;54.50;28.73;;;8.90;99.90;;;;;;4986074;28;20599;-72
2023/02/05 07:41:42;;;;;;;66.33;32.73;;;8.80;99.90;;;;;;4987935;28;20427;-73
2023/02/05 07:44:07;;;;;;;49.43;26.17;;;8.80;99.90;;;;;;4989780;28;20219;-71
2023/02/05 07:46:33;;;;;;;64.10;29.90;;;8.80;99.90;;;;;;4991304;28;20212;-72
2023/02/05 07:48:59;;;;;;;49.43;29.10;;;8.80;99.90;;;;;;4990828;28;20199;-71
2023/02/05 07:51:24;;;;;;;51.00;28.53;;;8.80;99.90;;;;;;4990401;28;20692;-71
2023/02/05 07:53:51;;;;;;;52.37;29.70;;;8.80;99.90;;;;;;4988431;28;20578;-73
2023/02/05 07:56:20;;;;;;;55.07;29.83;;;8.80;99.90;;;;;;4986976;28;20182;-73
2023/02/05 07:58:45;;;;;;;45.77;26.17;;;8.90;99.90;;;;;;4985147;28;20613;-71
2023/02/05 08:01:11;;;;;;;52.10;29.10;;;8.80;99.90;;;;;;4981567;28;20428;-72
2023/02/05 08:03:37;;;;;;;51.33;25.73;;;8.90;99.90;;;;;;4983743;28;20650;-72
2023/02/05 08:06:04;;;;;;;45.23;21.80;;;8.90;99.90;;;;;;4995093;28;20169;-72
2023/02/05 08:08:30;;;;;;;34.13;21.80;;;9.00;99.90;;;;;;4993557;28;20662;-72
2023/02/05 08:11:01;;;;;;;37.37;21.97;;;9.00;99.90;;;;;;4980354;28;20431;-72
2023/02/05 08:13:27;;;;;;;34.57;21.30;;;9.00;99.90;;;;;;4978935;28;20209;-70
2023/02/05 08:15:53;;;;;;;34.70;20.07;;;9.00;99.90;;;;;;4977328;28;20429;-71
2023/02/05 08:18:19;;;;;;;33.93;22.10;;;9.00;99.90;;;;;;4978526;28;20783;-70
2023/02/05 08:20:44;;;;;;;31.90;19.50;;;8.90;99.90;;;;;;4980417;28;20185;-71
2023/02/05 08:23:10;;;;;;;31.37;18.47;;;8.90;99.90;;;;;;4982215;28;20178;-72
2023/02/05 08:25:37;;;;;;;25.20;17.43;;;8.90;99.90;;;;;;4983709;28;20217;-71
2023/02/05 08:28:03;;;;;;;23.93;16.20;;;8.80;99.90;;;;;;4985411;28;20436;-71
2023/02/05 08:30:29;;;;;;;32.20;15.47;;;8.90;99.90;;;;;;4986582;28;20468;-73
2023/02/05 08:32:54;;;;;;;21.40;14.20;;;8.90;99.90;;;;;;4988628;28;20834;-72
2023/02/05 08:35:20;;;;;;;18.13;12.97;;;8.90;99.90;;;;;;4990235;28;20272;-71
2023/02/05 08:37:45;;;;;;;20.90;14.27;;;8.80;99.90;;;;;;4987371;28;20178;-71
2023/02/05 08:40:11;;;;;;;20.73;12.73;;;8.90;99.90;;;;;;4978410;28;20237;-71
2023/02/05 08:42:37;;;;;;;23.03;13.70;;;8.90;99.90;;;;;;4976662;28;20209;-71
2023/02/05 08:45:07;;;;;;;19.27;12.73;;;8.90;99.90;;;;;;4978108;28;20699;-70
2023/02/05 08:47:33;;;;;;;18.90;13.10;;;8.80;99.90;;;;;;4979506;28;20586;-71
2023/02/05 08:49:59;;;;;;;23.80;14.37;;;8.80;99.90;;;;;;4981148;28;20440;-71
2023/02/05 08:52:24;;;;;;;23.23;14.60;;;8.70;99.90;;;;;;4982949;28;20432;-71
2023/02/05 08:54:50;;;;;;;25.47;15.70;;;8.80;99.90;;;;;;4984323;28;20185;-72
2023/02/05 08:57:16;;;;;;;24.80;17.13;;;8.70;99.90;;;;;;4986091;28;20208;-70
2023/02/05 08:59:41;;;;;;;27.00;16.40;;;8.70;99.90;;;;;;4987694;28;20193;-70
2023/02/05 09:02:10;;;;;;;23.20;14.40;;;8.70;99.90;;;;;;4989595;28;20188;-71
2023/02/05 09:04:35;;;;;;;21.07;14.13;;;8.80;99.90;;;;;;4991423;28;20553;-72
2023/02/05 09:07:01;;;;;;;18.47;12.20;;;8.80;99.90;;;;;;4992907;28;20440;-71
2023/02/05 09:09:26;;;;;;;15.93;8.50;;;8.80;99.90;;;;;;4992671;28;20181;-71
2023/02/05 09:11:52;;;;;;;11.83;7.73;;;8.90;99.90;;;;;;4976891;28;20217;-71
2023/02/05 09:14:18;;;;;;;12.57;6.77;;;8.90;99.90;;;;;;4978462;28;20308;-71
2023/02/05 09:16:43;;;;;;;8.13;5.00;;;8.90;99.90;;;;;;4986409;28;20607;-71
2023/02/05 09:19:09;;;;;;;6.50;3.90;;;8.90;99.90;;;;;;4988903;28;20228;-70
2023/02/05 09:21:34;;;;;;;6.00;4.30;;;8.90;99.90;;;;;;4986474;28;20192;-70
2023/02/05 09:24:00;;;;;;;5.33;3.30;;;8.90;99.90;;;;;;4985505;28;20182;-70
2023/02/05 09:26:25;;;;;;;5.83;3.57;;;9.00;99.90;;;;;;4983474;28;20174;-71
2023/02/05 09:28:51;;;;;;;4.03;3.00;;;8.90;99.90;;;;;;4981939;28;20189;-69
2023/02/05 09:31:19;;;;;;;4.07;2.40;;;8.90;99.90;;;;;;4980023;28;20221;-70
2023/02/05 09:33:45;;;;;;;3.57;2.40;;;8.90;99.90;;;;;;4990821;28;20684;-69
2023/02/05 09:36:19;;;;;;;4.43;1.80;;;8.90;99.90;;;;;;4993590;28;20476;-71
2023/02/05 09:38:45;;;;;;;6.40;3.10;;;8.90;99.90;;;;;;4993636;28;20460;-75
2023/02/05 09:41:14;;;;;;;2.80;1.97;;;9.10;99.90;;;;;;4992437;28;20177;-74
2023/02/05 09:44:10;;;;;;;2.00;1.80;;;9.20;99.90;;;;;;4990567;28;20432;-74
2023/02/05 09:46:36;;;;;;;3.77;1.60;;;9.30;99.90;;;;;;4977171;28;20476;-74
2023/02/05 09:49:47;;;;;;;2.23;1.60;;;9.40;99.90;;;;;;4984549;28;20471;-73
2023/02/05 09:52:25;;;;;;;1.70;1.13;;;9.20;99.90;;;;;;4966299;28;20437;-73
2023/02/05 09:54:55;;;;;;;1.83;0.90;;;9.20;99.90;;;;;;4987294;28;20451;-73
2023/02/05 09:57:33;;;;;;;2.50;1.20;;;9.20;99.90;;;;;;4980602;28;20824;-72
2023/02/05 09:59:59;;;;;;;1.67;0.83;;;9.20;99.90;;;;;;4978960;28;20764;-73
2023/02/05 10:02:43;;;;;;;4.17;1.10;;;9.20;99.90;;;;;;4977331;28;20433;-70
2023/02/05 10:05:13;;;;;;;1.90;1.10;;;9.00;99.90;;;;;;4975457;28;20598;-71
2023/02/05 10:08:00;;;;;;;2.70;1.43;;;8.90;99.90;;;;;;4976339;28;21050;-70
2023/02/05 10:10:27;;;;;;;2.13;1.17;;;8.80;99.90;;;;;;4978468;28;20439;-69
2023/02/05 10:13:15;;;;;;;2.93;1.07;;;8.80;99.90;;;;;;4980110;28;20451;-70
2023/02/05 10:16:05;;;;;;;4.37;1.20;;;8.80;99.90;;;;;;4982189;28;20860;-69
2023/02/05 10:18:33;;;;;;;6.40;1.60;;;8.80;99.90;;;;;;4984361;28;20432;-69
2023/02/05 10:21:26;;;;;;;2.40;1.20;;;8.80;99.90;;;;;;4985731;28;20447;-70
2023/02/05 10:24:06;;;;;;;2.63;1.40;;;8.80;99.90;;;;;;4987646;28;20428;-70
2023/02/05 10:26:42;;;;;;;7.23;1.30;;;8.80;99.90;;;;;;4988504;28;20432;-70
2023/02/05 10:29:16;;;;;;;2.33;1.50;;;8.80;99.90;;;;;;4991143;28;20443;-69
2023/02/05 10:31:49;;;;;;;2.30;1.60;;;8.90;99.90;;;;;;4973906;28;20580;-68
2023/02/05 10:34:29;;;;;;;5.83;1.23;;;8.90;99.90;;;;;;4974821;28;20480;-70
2023/02/05 10:36:54;;;;;;;1.60;1.30;;;8.90;99.90;;;;;;4977747;28;20429;-68
2023/02/05 10:39:25;;;;;;;1.33;1.00;;;9.00;99.90;;;;;;4979424;28;20413;-68
2023/02/05 10:41:58;;;;;;;3.20;1.00;;;8.80;99.90;;;;;;4980814;28;20213;-68
2023/02/05 10:44:33;;;;;;;1.50;1.30;;;8.80;99.90;;;;;;4982709;28;20787;-70
2023/02/05 10:47:23;;;;;;;1.07;0.97;;;8.80;99.90;;;;;;4984740;28;20432;-69
2023/02/05 10:50:14;;;;;;;3.10;0.90;;;8.80;99.90;;;;;;4986478;28;20479;-68
2023/02/05 10:52:40;;;;;;;2.20;1.20;;;8.70;99.90;;;;;;4988352;28;20460;-68
2023/02/05 10:55:05;;;;;;;7.00;3.80;;;8.70;99.90;;;;;;4990134;28;20451;-68
2023/02/05 10:57:35;;;;;;;3.87;1.43;;;8.70;99.90;;;;;;4991666;28;20231;-69
2023/02/05 11:00:21;;;;;;;4.93;1.37;;;8.70;99.90;;;;;;4992944;28;20563;-69
2023/02/05 11:02:57;;;;;;;2.63;1.50;;;8.70;99.90;;;;;;4988981;28;20428;-69
2023/02/05 11:05:31;;;;;;;4.20;1.20;;;8.70;99.90;;;;;;4989258;28;20833;-69
2023/02/05 11:07:57;;;;;;;1.30;1.20;;;8.70;99.90;;;;;;4980204;28;20424;-68
2023/02/05 11:10:29;;;;;;;2.73;1.07;;;8.70;99.90;;;;;;4985237;28;20969;-69
2023/02/05 11:13:00;;;;;;;1.50;1.20;;;8.70;99.90;;;;;;4982109;28;21046;-69
2023/02/05 11:15:29;;;;;;;1.80;1.20;;;8.80;99.90;;;;;;4982092;28;20468;-69
2023/02/05 11:18:02;;;;;;;2.63;1.50;;;8.70;99.90;;;;;;4980276;28;20435;-70
2023/02/05 11:20:36;;;;;;;3.17;1.53;;;8.70;99.90;;;;;;4988167;28;20795;-70
2023/02/05 11:23:17;;;;;;;2.80;1.77;;;8.70;99.90;;;;;;4976344;28;20448;-70
2023/02/05 11:26:19;;;;;;;4.13;1.47;;;8.80;99.90;;;;;;4978207;28;20468;-70
2023/02/05 11:28:46;;;;;;;7.13;1.37;;;8.70;99.90;;;;;;4972649;28;20774;-69
2023/02/05 11:31:27;;;;;;;2.33;1.70;;;8.70;99.90;;;;;;4976009;28;20560;-71
2023/02/05 11:34:14;;;;;;;5.70;2.50;;;8.70;99.90;;;;;;4978301;28;20519;-69
2023/02/05 11:36:50;;;;;;;2.10;1.73;;;8.70;99.90;;;;;;4980017;28;20431;-69
2023/02/05 11:39:34;;;;;;;4.43;1.87;;;8.70;99.90;;;;;;4984035;28;20447;-71
2023/02/05 11:42:21;;;;;;;3.17;1.50;;;8.70;99.90;;;;;;4982153;28;20810;-72
2023/02/05 11:44:59;;;;;;;7.80;3.77;;;8.70;99.90;;;;;;4985633;28;20533;-71
2023/02/05 11:47:30;;;;;;;3.60;2.27;;;8.70;99.90;;;;;;4978276;28;20978;-71
2023/02/05 11:49:56;;;;;;;1.80;1.20;;;8.70;99.90;;;;;;4976503;28;20425;-71
2023/02/05 11:52:27;;;;;;;3.93;1.90;;;8.70;99.90;;;;;;4974550;28;20436;-71
2023/02/05 11:54:54;;;;;;;6.63;2.17;;;8.70;99.90;;;;;;4981248;28;20551;-72
2023/02/05 11:57:20;;;;;;;4.40;1.80;;;8.70;99.90;;;;;;4990405;28;20439;-71
2023/02/05 12:00:07;;;;;;;3.80;1.77;;;8.80;99.90;;;;;;4988892;28;20483;-71
2023/02/05 12:02:35;;;;;;;2.87;1.83;;;8.80;99.90;;;;;;4986515;28;20188;-71
2023/02/05 12:05:27;;;;;;;5.00;2.47;;;8.80;99.90;;;;;;4983520;28;20448;-72
2023/02/05 12:08:01;;;;;;;3.37;2.00;;;8.70;99.90;;;;;;4981925;28;20506;-71
2023/02/05 12:10:56;;;;;;;4.13;2.10;;;8.80;99.90;;;;;;4982570;28;20435;-72
2023/02/05 12:13:45;;;;;;;2.40;1.80;;;8.70;99.90;;;;;;4979007;28;20547;-71
2023/02/05 12:16:22;;;;;;;4.90;2.30;;;8.70;99.90;;;;;;4986160;28;20440;-69
2023/02/05 12:19:10;;;;;;;4.67;2.50;;;8.70;99.90;;;;;;4974515;28;20928;-71
2023/02/05 12:21:49;;;;;;;7.33;1.93;;;8.80;99.90;;;;;;4976758;28;20425;-69
2023/02/05 12:24:50;;;;;;;5.13;2.70;;;8.80;99.90;;;;;;4974957;28;20441;-68
2023/02/05 12:27:18;;;;;;;5.40;2.40;;;8.70;99.90;;;;;;4985211;28;20833;-70
2023/02/05 12:29:50;;;;;;;12.63;7.37;;;8.70;99.90;;;;;;4978037;28;20528;-71
2023/02/05 12:32:45;;;;;;;16.40;7.10;;;8.70;99.90;;;;;;4988983;28;20487;-72
2023/02/05 12:35:48;;;;;;;6.80;3.40;;;8.70;99.90;;;;;;4988617;28;20452;-75
2023/02/05 12:38:40;;;;;;;6.97;2.80;;;8.70;99.90;;;;;;4979919;28;20490;-73
2023/02/05 12:41:19;;;;;;;7.43;2.50;;;8.70;99.90;;;;;;4978274;28;20948;-75
2023/02/05 12:43:50;;;;;;;8.93;3.00;;;8.80;99.90;;;;;;4988092;28;20424;-75
2023/02/05 12:46:34;;;;;;;6.20;3.07;;;8.70;99.90;;;;;;4974467;28;20437;-75
2023/02/05 12:49:36;;;;;;;6.40;2.50;;;8.70;99.90;;;;;;4973087;28;20448;-72
2023/02/05 12:52:32;;;;;;;4.53;2.30;;;8.70;99.90;;;;;;4974770;28;20436;-72
2023/02/05 12:55:25;;;;;;;6.00;2.30;;;8.60;99.90;;;;;;4976838;28;20512;-71
2023/02/05 12:58:04;;;;;;;5.13;3.33;;;8.60;99.90;;;;;;4982371;28;20428;-71
2023/02/05 13:00:32;;;;;;;6.07;3.10;;;8.60;99.90;;;;;;4984316;28;20515;-71
2023/02/05 13:03:07;;;;;;;4.10;3.47;;;8.70;99.90;;;;;;4986151;28;20424;-70
2023/02/05 13:05:44;;;;;;;6.40;4.10;;;8.70;99.90;;;;;;4987860;28;20448;-69
2023/02/05 13:08:42;;;;;;;7.40;3.00;;;8.70;99.90;;;;;;4981693;28;20432;-70
2023/02/05 13:11:16;;;;;;;4.70;3.57;;;8.60;99.90;;;;;;4978059;28;20424;-69
2023/02/05 13:13:55;;;;;;;6.37;2.70;;;8.50;99.90;;;;;;4976192;28;20488;-71
2023/02/05 13:16:29;;;;;;;3.70;3.10;;;8.60;99.90;;;;;;4974768;28;20440;-71
2023/02/05 13:19:11;;;;;;;8.20;3.37;;;8.60;99.90;;;;;;4990850;28;20441;-72
2023/02/05 13:30:20;;;;;;;4.57;4.13;;;8.70;99.90;;;;;;4984185;28;20476;-70
2023/02/05 13:32:50;;;;;;;4.90;4.50;;;8.60;99.90;;;;;;4985483;28;20520;-69
2023/02/05 13:35:16;;;;;;;8.60;4.30;;;8.50;99.90;;;;;;4979960;28;20833;-73
2023/02/05 13:37:57;;;;;;;4.43;4.03;;;8.60;99.90;;;;;;4978053;28;20433;-72
2023/02/05 13:40:48;;;;;;;4.10;3.70;;;8.60;99.90;;;;;;4976501;28;20441;-72
2023/02/05 13:43:25;;;;;;;6.50;4.50;;;8.60;99.90;;;;;;4974645;28;20815;-72
2023/02/05 13:46:21;;;;;;;3.67;3.27;;;8.60;99.90;;;;;;4975187;28;20792;-72
2023/02/05 13:49:24;;;;;;;4.40;4.00;;;8.60;99.90;;;;;;4977359;28;20515;-72
2023/02/05 13:52:26;;;;;;;5.40;4.47;;;8.70;99.90;;;;;;4979126;28;20439;-70
2023/02/05 13:55:02;;;;;;;7.90;4.30;;;8.70;99.90;;;;;;4985167;28;20455;-71
2023/02/05 13:57:46;;;;;;;7.47;4.73;;;8.60;99.90;;;;;;4982385;28;20427;-71
2023/02/05 14:00:13;;;;;;;7.30;4.60;;;8.60;99.90;;;;;;4981214;28;20463;-70
2023/02/05 14:02:53;;;;;;;5.33;4.10;;;8.60;99.90;;;;;;4982591;28;20440;-72
2023/02/05 14:05:34;;;;;;;6.30;4.50;;;8.60;99.90;;;;;;4988675;28;20436;-70
2023/02/05 14:08:03;;;;;;;6.10;3.60;;;8.50;99.90;;;;;;4988236;28;20435;-71
2023/02/05 14:10:35;;;;;;;7.50;3.43;;;8.60;99.90;;;;;;4981072;28;20539;-69
2023/02/05 14:13:20;;;;;;;7.30;3.90;;;8.60;99.90;;;;;;4992345;28;20466;-70
2023/02/05 14:15:46;;;;;;;9.07;3.60;;;8.70;99.90;;;;;;4975244;28;20472;-70
2023/02/05 14:18:44;;;;;;;4.70;3.83;;;8.60;99.90;;;;;;4979336;28;20430;-71
2023/02/05 14:21:28;;;;;;;7.10;3.43;;;8.50;99.90;;;;;;4978449;28;20476;-72
2023/02/05 14:23:54;;;;;;;8.07;3.40;;;8.40;99.90;;;;;;4992898;28;20432;-72
2023/02/05 14:26:50;;;;;;;7.17;4.27;;;8.40;99.90;;;;;;4994278;28;20483;-72
2023/02/05 14:29:40;;;;;;;6.07;3.67;;;8.40;99.90;;;;;;4987489;28;20425;-72
2023/02/05 14:32:12;;;;;;;10.43;4.87;;;8.40;99.90;;;;;;4989184;28;20509;-72
2023/02/05 14:34:37;;;;;;;8.23;4.60;;;8.40;99.90;;;;;;4991153;28;20483;-72
2023/02/05 14:37:04;;;;;;;9.93;4.87;;;8.40;99.90;;;;;;4992620;28;20424;-72
2023/02/05 14:39:35;;;;;;;7.13;3.70;;;8.40;99.90;;;;;;4992394;28;20269;-71
2023/02/05 14:42:04;;;;;;;6.97;4.23;;;8.40;99.90;;;;;;4975603;28;20437;-71
2023/02/05 14:44:35;;;;;;;7.37;4.40;;;8.30;99.90;;;;;;4976796;28;20801;-72
2023/02/05 14:47:06;;;;;;;7.17;5.10;;;8.30;99.90;;;;;;4978654;28;20548;-73
2023/02/05 14:49:32;;;;;;;10.67;4.57;;;8.30;99.90;;;;;;4983489;28;20431;-71
2023/02/05 14:52:01;;;;;;;7.27;4.47;;;8.20;99.90;;;;;;4982095;28;20424;-70
2023/02/05 14:54:31;;;;;;;11.40;5.10;;;8.30;99.90;;;;;;4980435;28;20212;-70
2023/02/05 14:57:21;;;;;;;11.17;5.60;;;8.20;99.90;;;;;;4985760;28;20425;-70
2023/02/05 14:59:49;;;;;;;19.43;9.30;;;8.30;99.90;;;;;;4976777;28;20524;-70
2023/02/05 15:02:53;;;;;;;9.10;5.80;;;8.30;99.90;;;;;;4989476;28;20427;-70
2023/02/05 15:05:45;;;;;;;9.40;5.40;;;8.20;99.90;;;;;;4992809;28;20444;-70
2023/02/05 15:08:14;;;;;;;18.03;6.77;;;8.20;99.90;;;;;;4968533;28;20440;-71
2023/02/05 15:11:04;;;;;;;8.33;4.80;;;8.20;99.90;;;;;;4978399;28;20441;-68
2023/02/05 15:13:29;;;;;;;9.20;4.87;;;8.20;99.90;;;;;;4979265;28;20469;-68
2023/02/05 15:16:10;;;;;;;11.00;5.40;;;8.20;99.90;;;;;;4985841;28;20433;-78